Blackwell, Texas
Current Conditions -  °F | °C
As of 10:15 AM on Thursday 29 Jan 2015 (Local Time) from KSWW Reporting Station
Scattered Clouds Scattered Clouds  
Wind Chill: 56°   Ceiling: Unl
Heat Index: 56°   Visibility: 10mi
Dew Point: 35°   Wind: 17mph
Humidity: 45%   Direction: 20°NNE
Pressure: 30.38"   Gusts: 26mph
Location:  32.09°N, 100.32°W
Report Text: KSWW 291615Z AUTO 02015G23KT 10SM SCT090 13/02 A3038 RMK AO2 T01330016
Loading
Personal Weather Stations






























Interactive Weather Map New forecast layout! Learn more

10-Day Weather Forecast

Advertisements
Track Severe Weather on mobile